createdAt,value
2022-08-05T00:02:07.603Z,99931.09
2022-08-05T00:06:02.791Z,99918.00
2022-08-05T00:08:38.189Z,99927.81
2022-08-05T00:11:48.218Z,99926.28
2022-08-05T00:14:52.264Z,99920.19
2022-08-05T00:17:56.484Z,99924.69
2022-08-05T00:20:59.036Z,99924.00
2022-08-05T00:24:09.824Z,99927.28
2022-08-05T00:27:16.655Z,99923.25
2022-08-05T00:30:19.914Z,99921.59
2022-08-05T00:34:54.892Z,99918.56
2022-08-05T00:37:11.940Z,99913.97
2022-08-05T00:40:17.799Z,99919.72
2022-08-05T00:43:46.566Z,99919.81
2022-08-05T00:46:53.968Z,99925.13
2022-08-05T00:49:56.994Z,99919.00
2022-08-05T00:53:00.219Z,99917.66
2022-08-05T00:56:03.323Z,99921.44
2022-08-05T00:59:06.992Z,99920.31
2022-08-05T01:02:10.166Z,99920.31
2022-08-05T01:05:13.903Z,99916.44
2022-08-05T01:08:42.278Z,99912.78
2022-08-05T01:11:39.959Z,99913.00
2022-08-05T01:15:05.067Z,99915.56
2022-08-05T01:18:13.334Z,99911.06
2022-08-05T01:21:41.736Z,99911.25
2022-08-05T01:24:50.363Z,99904.66
2022-08-05T01:28:08.694Z,99907.59
2022-08-05T01:31:17.210Z,99914.28
2022-08-05T01:34:26.663Z,99904.81
2022-08-05T01:37:44.381Z,99913.16
2022-08-05T01:40:47.714Z,99915.88
2022-08-05T01:43:51.963Z,99914.31
2022-08-05T01:46:55.343Z,99905.00
2022-08-05T01:50:01.809Z,99904.19
2022-08-05T01:53:08.559Z,99908.16
2022-08-05T01:58:09.315Z,99909.09
2022-08-05T01:59:40.892Z,99913.91
2022-08-05T02:02:56.423Z,99908.09
2022-08-05T02:06:12.611Z,99907.09
2022-08-05T02:09:24.628Z,99913.53
2022-08-05T02:12:37.632Z,99908.22
2022-08-05T02:15:54.273Z,99913.25
2022-08-05T02:19:01.681Z,99909.94
2022-08-05T02:22:17.542Z,99909.22
2022-08-05T02:25:49.006Z,99917.09
2022-08-05T02:28:53.061Z,99913.56
2022-08-05T02:31:57.960Z,99907.56
2022-08-05T02:35:13.766Z,99912.88
2022-08-05T02:38:19.355Z,99914.91
2022-08-05T02:41:28.779Z,99919.53
2022-08-05T02:44:39.824Z,99916.00
2022-08-05T02:48:06.999Z,99914.22
2022-08-05T02:51:08.769Z,99923.66
2022-08-05T02:54:36.073Z,99921.19
2022-08-05T02:58:11.015Z,99917.50
2022-08-05T03:01:02.854Z,99922.91
2022-08-05T03:04:14.087Z,99921.09
2022-08-05T03:07:56.569Z,99920.06
2022-08-05T03:11:53.026Z,99915.72
2022-08-05T03:14:08.175Z,99908.28
2022-08-05T03:17:11.205Z,99913.94
2022-08-05T03:20:14.044Z,99907.56
2022-08-05T03:23:18.097Z,99907.56
2022-08-05T03:26:32.023Z,99903.88
2022-08-05T03:29:45.551Z,99905.22
2022-08-05T03:33:02.259Z,99911.22
2022-08-05T03:36:06.633Z,99903.56
2022-08-05T03:39:20.255Z,99901.91
2022-08-05T03:42:32.929Z,99899.88
2022-08-05T03:45:55.308Z,99907.16
2022-08-05T03:49:02.226Z,99903.00
2022-08-05T03:52:39.132Z,99905.31
2022-08-05T03:56:04.041Z,99907.19
2022-08-05T03:59:01.986Z,99901.41
2022-08-05T04:02:05.306Z,99902.69
2022-08-05T04:05:10.409Z,99909.78
2022-08-05T04:08:30.219Z,99905.22
2022-08-05T04:11:50.906Z,99902.28
2022-08-05T04:14:57.563Z,99912.84
2022-08-05T04:18:06.998Z,99903.78
2022-08-05T04:21:11.037Z,99899.16
2022-08-05T04:24:19.545Z,99898.72
2022-08-05T04:27:32.965Z,99898.88
2022-08-05T04:30:45.811Z,99902.19
2022-08-05T04:34:17.215Z,99895.09
2022-08-05T04:37:11.695Z,99900.03
2022-08-05T04:40:17.094Z,99900.63
2022-08-05T04:43:22.551Z,99891.66
2022-08-05T04:46:28.731Z,99899.69
2022-08-05T04:49:38.377Z,99894.00
2022-08-05T04:52:54.138Z,99907.63
2022-08-05T04:56:14.899Z,99908.56
2022-08-05T04:59:24.152Z,99893.72
2022-08-05T05:02:37.111Z,99900.81
2022-08-05T05:06:40.020Z,99895.84
2022-08-05T05:09:07.718Z,99902.53
2022-08-05T05:12:10.261Z,99901.13
2022-08-05T05:15:17.547Z,99894.47
2022-08-05T05:18:36.976Z,99905.50
2022-08-05T05:21:39.765Z,99904.81
2022-08-05T05:24:57.899Z,99899.47
2022-08-05T05:28:02.165Z,99895.37
2022-08-05T05:31:05.677Z,99898.25
2022-08-05T05:34:12.066Z,99898.62
2022-08-05T05:37:15.133Z,99897.09
2022-08-05T05:40:20.364Z,99891.56
2022-08-05T05:43:57.154Z,99884.38
2022-08-05T05:46:51.243Z,99891.81
2022-08-05T05:49:56.977Z,99892.78
2022-08-05T05:53:20.789Z,99890.75
2022-08-05T05:56:31.415Z,99890.69
2022-08-05T05:59:40.205Z,99888.66
2022-08-05T06:02:43.777Z,99884.16
2022-08-05T06:05:47.042Z,99889.78
2022-08-05T06:08:56.888Z,99892.22
2022-08-05T06:12:02.467Z,99886.84
2022-08-05T06:15:08.425Z,99876.72
2022-08-05T06:18:11.294Z,99883.62
2022-08-05T06:21:16.793Z,99886.06
2022-08-05T06:24:25.649Z,99875.91
2022-08-05T06:28:11.583Z,99884.28
2022-08-05T06:30:52.917Z,99885.00
2022-08-05T06:34:07.736Z,99889.03
2022-08-05T06:37:12.397Z,99888.41
2022-08-05T06:40:18.521Z,99884.44
2022-08-05T06:43:59.693Z,99888.84
2022-08-05T06:46:46.877Z,99882.72
2022-08-05T06:50:01.695Z,99887.22
2022-08-05T06:53:11.759Z,99887.56
2022-08-05T06:56:27.013Z,99883.25
2022-08-05T06:59:29.802Z,99888.25
2022-08-05T07:02:45.939Z,99882.78
2022-08-05T07:05:48.480Z,99886.66
2022-08-05T07:08:54.885Z,99887.75
2022-08-05T07:12:00.669Z,99886.63
2022-08-05T07:15:34.344Z,99888.78
2022-08-05T07:18:47.701Z,99884.69
2022-08-05T07:21:59.881Z,99894.22
2022-08-05T07:25:23.418Z,99882.62
2022-08-05T07:28:27.629Z,99884.19
2022-08-05T07:31:40.685Z,99876.69
2022-08-05T07:34:57.941Z,99877.38
2022-08-05T07:38:01.205Z,99882.72
2022-08-05T07:42:08.073Z,99871.41
2022-08-05T07:44:30.698Z,99875.09
2022-08-05T07:47:40.391Z,99869.94
2022-08-05T07:50:45.225Z,99874.03
2022-08-05T07:53:50.230Z,99873.91
2022-08-05T07:57:02.057Z,99868.78
2022-08-05T08:00:17.351Z,99869.63
2022-08-05T08:03:21.534Z,99870.97
2022-08-05T08:06:28.330Z,99873.06
2022-08-05T08:09:31.395Z,99873.41
2022-08-05T08:12:48.906Z,99881.63
2022-08-05T08:16:49.754Z,99878.28
2022-08-05T08:19:37.962Z,99873.47
2022-08-05T08:22:38.069Z,99871.03
2022-08-05T08:25:59.127Z,99876.63
2022-08-05T08:29:45.175Z,99875.62
2022-08-05T08:32:28.416Z,99873.63
2022-08-05T08:35:34.774Z,99870.00
2022-08-05T08:38:37.965Z,99867.03
2022-08-05T08:41:51.764Z,99864.63
2022-08-05T08:45:23.383Z,99869.72
2022-08-05T08:49:03.316Z,99868.97
2022-08-05T08:52:03.506Z,99854.81
2022-08-05T08:55:13.122Z,99854.38
2022-08-05T08:58:17.296Z,99854.63
2022-08-05T09:01:20.471Z,99858.50
2022-08-05T09:04:24.228Z,99858.81
2022-08-05T09:07:39.439Z,99856.78
2022-08-05T09:10:56.517Z,99854.28
2022-08-05T09:14:54.771Z,99848.22
2022-08-05T09:17:42.518Z,99848.63
2022-08-05T09:20:47.161Z,99836.97
2022-08-05T09:24:04.474Z,99835.19
2022-08-05T09:27:09.754Z,99832.97
2022-08-05T09:30:16.941Z,99827.28
2022-08-05T09:33:34.852Z,99834.09
2022-08-05T09:36:56.132Z,99826.41
2022-08-05T09:40:02.120Z,99819.16
2022-08-05T09:43:10.433Z,99819.81
2022-08-05T09:46:27.496Z,99814.81
2022-08-05T09:49:54.400Z,99809.28
2022-08-05T09:52:58.779Z,99804.75
2022-08-05T09:56:04.777Z,99809.47
2022-08-05T09:59:17.555Z,99801.19
2022-08-05T10:02:41.126Z,99803.94
2022-08-05T10:05:44.782Z,99796.47
2022-08-05T10:08:55.354Z,99787.06
2022-08-05T10:12:18.907Z,99789.03
2022-08-05T10:15:35.176Z,99787.22
2022-08-05T10:18:39.036Z,99780.41
2022-08-05T10:21:43.677Z,99782.59
2022-08-05T10:24:46.699Z,99786.28
2022-08-05T10:28:13.080Z,99776.19
2022-08-05T10:33:00.862Z,99776.19
2022-08-05T10:34:40.770Z,99769.88
2022-08-05T10:37:44.975Z,99767.28
2022-08-05T10:41:09.680Z,99763.97
2022-08-05T10:44:21.015Z,99760.00
2022-08-05T10:47:32.951Z,99765.56
2022-08-05T10:50:59.551Z,99761.72
2022-08-05T10:54:22.984Z,99760.84
2022-08-05T10:57:31.888Z,99756.78
2022-08-05T11:00:35.977Z,99747.25
2022-08-05T11:04:18.310Z,99744.16
2022-08-05T11:07:32.959Z,99737.97
2022-08-05T11:10:50.270Z,99739.81
2022-08-05T11:14:04.955Z,99742.06
2022-08-05T11:17:58.034Z,99734.63
2022-08-05T11:20:51.429Z,99730.03
2022-08-05T11:24:05.750Z,99719.69
2022-08-05T11:27:50.860Z,99719.19
2022-08-05T11:31:06.617Z,99718.87
2022-08-05T11:34:09.465Z,99717.47
2022-08-05T11:38:26.436Z,99710.69
2022-08-05T11:41:34.367Z,99715.41
2022-08-05T11:44:53.021Z,99711.84
2022-08-05T11:47:57.792Z,99719.41
2022-08-05T11:51:02.186Z,99723.00
2022-08-05T11:54:05.144Z,99713.09
2022-08-05T11:57:24.828Z,99708.00
2022-08-05T12:00:30.808Z,99717.72
2022-08-05T12:03:56.130Z,99708.38
2022-08-05T12:07:02.104Z,99721.16
2022-08-05T12:10:09.142Z,99710.19
2022-08-05T12:13:15.544Z,99706.19
2022-08-05T12:16:26.939Z,99712.16
2022-08-05T12:20:16.671Z,99701.25
2022-08-05T12:22:52.531Z,99694.50
2022-08-05T12:25:56.969Z,99694.75
2022-08-05T12:29:00.088Z,99690.63
2022-08-05T12:32:07.584Z,99688.91
2022-08-05T12:35:16.738Z,99690.72
2022-08-05T12:38:22.407Z,99691.78
2022-08-05T12:41:36.472Z,99683.53
2022-08-05T12:44:47.376Z,99694.41
2022-08-05T12:48:17.240Z,99679.03
2022-08-05T12:52:09.989Z,99683.53
2022-08-05T12:54:41.459Z,99678.50
2022-08-05T12:58:38.829Z,99678.91
2022-08-05T13:02:00.181Z,99674.41
2022-08-05T13:04:32.615Z,99668.13
2022-08-05T13:07:57.504Z,99675.84
2022-08-05T13:11:02.224Z,99670.75
2022-08-05T13:14:20.449Z,99663.19
2022-08-05T13:17:41.331Z,99657.53
2022-08-05T13:20:45.284Z,99651.50
2022-08-05T13:23:50.751Z,99649.47
2022-08-05T13:26:54.953Z,99648.69
2022-08-05T13:30:35.144Z,99646.81
2022-08-05T13:34:21.910Z,99638.72
2022-08-05T13:36:44.563Z,99640.34
2022-08-05T13:40:16.594Z,99629.09
2022-08-05T13:43:22.203Z,99629.56
2022-08-05T13:46:44.229Z,99632.41
2022-08-05T13:49:49.268Z,99618.94
2022-08-05T13:52:52.181Z,99611.41
2022-08-05T13:56:00.231Z,99607.94
2022-08-05T13:59:05.998Z,99613.22
2022-08-05T14:02:26.629Z,99611.47
2022-08-05T14:06:04.578Z,99596.94
2022-08-05T14:08:55.147Z,99598.81
2022-08-05T14:12:17.678Z,99602.13
2022-08-05T14:16:07.975Z,99601.03
2022-08-05T14:18:43.825Z,99592.88
2022-08-05T14:22:08.737Z,99590.22
2022-08-05T14:25:21.959Z,99594.19
2022-08-05T14:28:26.413Z,99588.03
2022-08-05T14:32:02.650Z,99579.38
2022-08-05T14:34:53.256Z,99578.34
2022-08-05T14:37:57.835Z,99572.31
2022-08-05T14:41:06.178Z,99584.25
2022-08-05T14:44:20.504Z,99584.00
2022-08-05T14:48:03.805Z,99579.25
2022-08-05T14:50:47.841Z,99578.56
2022-08-05T14:54:27.094Z,99574.41
2022-08-05T14:57:15.099Z,99565.13
2022-08-05T15:00:19.907Z,99561.53
2022-08-05T15:03:23.031Z,99559.75
2022-08-05T15:06:27.874Z,99556.94
2022-08-05T15:09:52.287Z,99557.31
2022-08-05T15:13:01.110Z,99552.78
2022-08-05T15:16:06.754Z,99550.25
2022-08-05T15:19:14.616Z,99555.56
2022-08-05T15:22:27.182Z,99544.88
2022-08-05T15:25:41.046Z,99545.91
2022-08-05T15:28:53.298Z,99539.66
2022-08-05T15:31:55.974Z,99541.97
2022-08-05T15:34:58.834Z,99539.31
2022-08-05T15:38:31.720Z,99537.63
2022-08-05T15:41:58.514Z,99536.59
2022-08-05T15:44:54.840Z,99527.31
2022-08-05T15:47:57.742Z,99522.72
2022-08-05T15:51:03.402Z,99523.84
2022-08-05T15:54:08.665Z,99516.34
2022-08-05T15:57:11.609Z,99514.84
2022-08-05T16:00:32.749Z,99512.87
2022-08-05T16:03:42.243Z,99516.94
2022-08-05T16:06:44.921Z,99507.91
2022-08-05T16:09:51.115Z,99524.34
2022-08-05T16:12:56.720Z,99513.78
2022-08-05T16:15:59.598Z,99515.78
2022-08-05T16:19:02.273Z,99517.47
2022-08-05T16:22:06.290Z,99512.59
2022-08-05T16:25:11.019Z,99515.63
2022-08-05T16:28:15.596Z,99515.03
2022-08-05T16:31:18.326Z,99513.87
2022-08-05T16:34:23.278Z,99519.16
2022-08-05T16:38:01.854Z,99514.97
2022-08-05T16:40:55.774Z,99512.87
2022-08-05T16:44:02.477Z,99517.75
2022-08-05T16:47:05.447Z,99511.09
2022-08-05T16:50:29.585Z,99508.53
2022-08-05T16:54:02.786Z,99514.50
2022-08-05T16:56:56.769Z,99508.16
2022-08-05T17:00:03.064Z,99506.37
2022-08-05T17:03:19.540Z,99507.59
2022-08-05T17:06:24.457Z,99511.69
2022-08-05T17:09:30.990Z,99512.53
2022-08-05T17:12:51.299Z,99514.63
2022-08-05T17:16:02.779Z,99509.97
2022-08-05T17:19:17.671Z,99517.44
2022-08-05T17:22:25.333Z,99519.19
2022-08-05T17:25:33.615Z,99519.66
2022-08-05T17:28:36.892Z,99519.94
2022-08-05T17:31:56.474Z,99525.28
2022-08-05T17:35:00.527Z,99519.41
2022-08-05T17:38:08.061Z,99530.81
2022-08-05T17:41:22.682Z,99532.53
2022-08-05T17:44:33.958Z,99528.81
2022-08-05T17:47:39.005Z,99533.88
2022-08-05T17:50:42.097Z,99542.66
2022-08-05T17:53:45.898Z,99535.41
2022-08-05T17:56:57.482Z,99530.31
2022-08-05T18:00:04.847Z,99526.31
2022-08-05T18:03:08.699Z,99527.03
2022-08-05T18:06:15.380Z,99530.88
2022-08-05T18:09:18.784Z,99523.63
2022-08-05T18:12:22.350Z,99533.06
2022-08-05T18:15:27.655Z,99534.84
2022-08-05T18:18:34.061Z,99537.09
2022-08-05T18:22:08.226Z,99532.44
2022-08-05T18:25:06.303Z,99535.09
2022-08-05T18:28:09.875Z,99536.06
2022-08-05T18:31:12.716Z,99536.56
2022-08-05T18:34:21.676Z,99541.69
2022-08-05T18:37:34.381Z,99534.75
2022-08-05T18:41:55.077Z,99540.59
2022-08-05T18:44:08.006Z,99546.38
2022-08-05T18:47:12.052Z,99545.72
2022-08-05T18:50:45.109Z,99559.06
2022-08-05T18:53:50.100Z,99554.72
2022-08-05T18:56:53.274Z,99558.22
2022-08-05T19:00:02.313Z,99555.00
2022-08-05T19:03:06.848Z,99556.34
2022-08-05T19:06:19.280Z,99557.41
2022-08-05T19:09:25.286Z,99560.22
2022-08-05T19:12:32.209Z,99564.66
2022-08-05T19:15:57.083Z,99559.78
2022-08-05T19:18:58.124Z,99561.47
2022-08-05T19:22:00.837Z,99568.84
2022-08-05T19:25:04.436Z,99570.03
2022-08-05T19:28:07.168Z,99567.88
2022-08-05T19:31:13.482Z,99569.22
2022-08-05T19:34:20.390Z,99567.91
2022-08-05T19:37:30.103Z,99561.63
2022-08-05T19:40:48.295Z,99560.25
2022-08-05T19:44:05.446Z,99559.47
2022-08-05T19:47:10.295Z,99563.31
2022-08-05T19:50:13.395Z,99558.97
2022-08-05T19:53:16.045Z,99569.84
2022-08-05T19:56:38.863Z,99568.47
2022-08-05T19:59:55.394Z,99569.03
2022-08-05T20:03:13.883Z,99570.66
2022-08-05T20:06:29.074Z,99572.03
2022-08-05T20:09:54.517Z,99579.91
2022-08-05T20:12:55.273Z,99579.63
2022-08-05T20:15:58.043Z,99584.50
2022-08-05T20:19:02.610Z,99586.62
2022-08-05T20:22:05.780Z,99580.66
2022-08-05T20:25:12.489Z,99583.06
2022-08-05T20:28:15.087Z,99591.22
2022-08-05T20:31:23.084Z,99591.22
2022-08-05T20:34:31.392Z,99591.72
2022-08-05T20:38:05.399Z,99596.03
2022-08-05T20:40:57.213Z,99598.44
2022-08-05T20:44:17.435Z,99592.47
2022-08-05T20:47:31.870Z,99593.00
2022-08-05T20:50:37.749Z,99585.31
2022-08-05T20:53:56.185Z,99593.44
2022-08-05T20:57:00.678Z,99596.91
2022-08-05T21:00:19.891Z,99585.97
2022-08-05T21:03:34.379Z,99598.72
2022-08-05T21:06:37.861Z,99595.72
2022-08-05T21:09:53.354Z,99599.78
2022-08-05T21:13:08.953Z,99605.19
2022-08-05T21:16:17.330Z,99601.34
2022-08-05T21:19:26.007Z,99601.25
2022-08-05T21:22:31.245Z,99597.97
2022-08-05T21:25:34.373Z,99613.41
2022-08-05T21:28:39.365Z,99608.75
2022-08-05T21:31:42.056Z,99611.34
2022-08-05T21:34:44.924Z,99603.44
2022-08-05T21:38:07.616Z,99622.69
2022-08-05T21:41:12.058Z,99617.47
2022-08-05T21:44:14.643Z,99627.16
2022-08-05T21:47:56.171Z,99624.16
2022-08-05T21:50:41.988Z,99619.34
2022-08-05T21:53:59.379Z,99618.28
2022-08-05T21:57:30.217Z,99631.81
2022-08-05T22:00:29.401Z,99625.00
2022-08-05T22:03:48.741Z,99627.41
2022-08-05T22:06:57.008Z,99629.19
2022-08-05T22:10:00.307Z,99622.69
2022-08-05T22:14:06.627Z,99628.25
2022-08-05T22:16:41.353Z,99634.75
2022-08-05T22:20:00.580Z,99629.59
2022-08-05T22:23:23.920Z,99627.06
2022-08-05T22:26:50.002Z,99624.59
2022-08-05T22:29:54.103Z,99629.59
2022-08-05T22:32:57.025Z,99625.50
2022-08-05T22:36:01.059Z,99635.22
2022-08-05T22:39:09.452Z,99629.78
2022-08-05T22:42:25.274Z,99643.78
2022-08-05T22:45:28.972Z,99636.88
2022-08-05T22:48:34.264Z,99633.34
2022-08-05T22:52:04.875Z,99629.44
2022-08-05T22:55:00.791Z,99628.44
2022-08-05T22:58:03.428Z,99621.97
2022-08-05T23:01:08.037Z,99624.91
2022-08-05T23:04:10.815Z,99630.34
2022-08-05T23:07:13.767Z,99629.41
2022-08-05T23:10:23.837Z,99620.94
2022-08-05T23:13:27.193Z,99623.75
2022-08-05T23:17:10.635Z,99623.84
2022-08-05T23:20:17.755Z,99623.28
2022-08-05T23:23:20.703Z,99612.59
2022-08-05T23:26:25.192Z,99615.81
2022-08-05T23:29:30.134Z,99626.09
2022-08-05T23:32:37.627Z,99630.00
2022-08-05T23:35:43.337Z,99626.78
2022-08-05T23:38:46.695Z,99615.31
2022-08-05T23:41:49.260Z,99625.56
2022-08-05T23:44:54.545Z,99622.44
2022-08-05T23:47:59.573Z,99633.47
2022-08-05T23:51:07.363Z,99628.44
2022-08-05T23:54:10.716Z,99624.91
2022-08-05T23:57:14.248Z,99622.81
